Time;durP1;ratioP1;P1;durP2;ratioP2;P2;SDS_P1;SDS_P2;PMS_P1;PMS_P2;Temp;Humidity;BMP_temperature;BMP_pressure;BME280_temperature;BME280_humidity;BME280_pressure;Samples;Min_cycle;Max_cycle;Signal;HPM_P1;HPM_P2
2022/01/12 00:00:42;;;;;;;0.60;0.50;;;10.90;99.90;;;;;;5055113;28;20234;-94
2022/01/12 00:03:13;;;;;;;1.00;0.30;;;10.90;99.90;;;;;;5067512;28;20204;-93
2022/01/12 00:05:45;;;;;;;0.30;0.30;;;10.90;99.90;;;;;;5068970;28;20215;-93
2022/01/12 00:08:16;;;;;;;1.03;0.37;;;10.90;99.90;;;;;;5057939;28;20204;-94
2022/01/12 00:10:49;;;;;;;0.77;0.40;;;11.00;99.90;;;;;;5061246;28;20211;-95
2022/01/12 00:13:20;;;;;;;0.43;0.23;;;11.00;99.90;;;;;;5067379;28;20200;-94
2022/01/12 00:15:51;;;;;;;0.60;0.37;;;11.00;99.90;;;;;;5064460;28;20272;-94
2022/01/12 00:18:23;;;;;;;0.30;0.30;;;10.90;99.90;;;;;;5067637;28;20227;-94
2022/01/12 00:20:54;;;;;;;2.57;0.40;;;10.90;99.90;;;;;;5068741;28;20204;-93
2022/01/12 00:23:26;;;;;;;0.80;0.30;;;10.90;99.90;;;;;;5070904;28;20238;-93
2022/01/12 00:26:04;;;;;;;1.43;0.40;;;11.00;99.90;;;;;;5070651;28;20208;-91
2022/01/12 00:34:12;;;;;;;0.20;0.20;;;10.90;99.90;;;;;;5075107;28;20201;-94
2022/01/12 00:36:44;;;;;;;0.83;0.30;;;10.90;99.90;;;;;;5072484;28;20212;-94
2022/01/12 00:39:16;;;;;;;1.07;0.50;;;10.90;99.90;;;;;;5066361;28;20290;-93
2022/01/12 00:41:50;;;;;;;1.97;1.07;;;10.90;99.90;;;;;;5077091;28;20205;-93
2022/01/12 00:44:25;;;;;;;1.67;1.07;;;10.90;99.90;;;;;;5073145;28;20208;-95
2022/01/12 00:46:56;;;;;;;0.97;0.57;;;11.00;99.90;;;;;;5071256;28;20215;-93
2022/01/12 00:49:28;;;;;;;0.50;0.50;;;11.00;99.90;;;;;;5071360;28;20200;-92
2022/01/12 00:51:59;;;;;;;1.67;0.50;;;11.00;99.90;;;;;;5072552;28;20215;-93
2022/01/12 00:54:31;;;;;;;0.70;0.40;;;10.90;99.90;;;;;;5072070;28;20572;-94
2022/01/12 00:57:04;;;;;;;3.07;0.53;;;10.90;99.90;;;;;;5072132;28;20234;-94
2022/01/12 00:59:35;;;;;;;2.10;0.73;;;10.90;99.90;;;;;;5071618;28;20244;-94
2022/01/12 01:02:06;;;;;;;1.37;0.60;;;10.90;99.90;;;;;;5073131;28;20220;-95
2022/01/12 01:04:37;;;;;;;1.03;0.40;;;11.00;99.90;;;;;;5076660;28;20286;-95
2022/01/12 01:07:08;;;;;;;3.23;0.60;;;11.00;99.90;;;;;;5176830;23;20235;-93
2022/01/12 01:09:46;;;;;;;0.50;0.50;;;11.00;99.90;;;;;;5079296;28;20197;-94
2022/01/12 01:12:20;;;;;;;0.80;0.53;;;11.00;99.90;;;;;;5079177;28;20219;-93
2022/01/12 01:25:50;;;;;;;2.67;0.63;;;11.10;99.90;;;;;;5077000;28;20196;-94
2022/01/12 01:28:24;;;;;;;2.07;0.70;;;11.10;99.90;;;;;;5075150;28;20204;-94
2022/01/12 01:30:55;;;;;;;2.10;0.70;;;11.10;99.90;;;;;;5077814;28;20235;-94
2022/01/12 01:55:40;;;;;;;1.60;0.80;;;11.00;99.90;;;;;;5118828;28;20194;-92
2022/01/12 01:58:11;;;;;;;2.57;0.90;;;11.00;99.90;;;;;;5115475;28;20206;-94
2022/01/12 02:00:46;;;;;;;3.63;1.63;;;11.00;99.90;;;;;;5116931;28;20235;-94
2022/01/12 02:03:19;;;;;;;3.57;1.00;;;11.00;99.90;;;;;;5117801;28;20254;-94
2022/01/12 02:05:51;;;;;;;3.90;1.07;;;11.00;99.90;;;;;;5113612;28;20274;-93
2022/01/12 02:08:22;;;;;;;2.93;0.97;;;11.00;99.90;;;;;;5115114;28;20270;-93
2022/01/12 02:10:56;;;;;;;2.77;0.80;;;11.10;99.90;;;;;;5111058;28;20668;-94
2022/01/12 02:13:27;;;;;;;2.10;0.90;;;11.10;99.90;;;;;;5111951;28;20279;-94
2022/01/12 02:16:03;;;;;;;2.43;0.83;;;11.10;99.90;;;;;;5112232;28;20207;-94
2022/01/12 02:18:52;;;;;;;6.60;1.10;;;11.00;99.90;;;;;;5111654;28;20210;-95
2022/01/12 02:35:45;;;;;;;4.10;0.90;;;11.10;99.90;;;;;;5109234;28;20211;-94
2022/01/12 02:41:13;;;;;;;2.37;0.90;;;11.00;99.90;;;;;;5035300;28;20284;-94
2022/01/12 02:54:58;;;;;;;1.83;0.80;;;11.00;99.90;;;;;;5085266;28;20224;-95
2022/01/12 02:57:29;;;;;;;1.87;1.03;;;11.00;99.90;;;;;;5083382;28;20208;-94
2022/01/12 03:00:06;;;;;;;3.50;0.83;;;11.00;99.90;;;;;;5090863;28;20258;-95
2022/01/12 03:02:39;;;;;;;4.00;0.90;;;11.00;99.90;;;;;;5094414;28;20207;-94
2022/01/12 03:08:08;;;;;;;4.60;0.97;;;11.10;99.90;;;;;;5077377;28;20208;-95
2022/01/12 03:10:42;;;;;;;2.17;0.90;;;11.10;99.90;;;;;;5089893;28;20215;-94
2022/01/12 03:13:14;;;;;;;3.90;1.03;;;11.10;99.90;;;;;;5092687;28;20191;-95
2022/01/12 03:15:48;;;;;;;6.57;0.80;;;11.10;99.90;;;;;;5080972;28;20207;-95
2022/01/12 03:18:18;;;;;;;2.80;1.07;;;11.20;99.90;;;;;;5077863;28;20242;-94
2022/01/12 03:20:50;;;;;;;2.93;0.77;;;11.20;99.90;;;;;;5089759;28;20216;-94
2022/01/12 03:23:21;;;;;;;4.90;1.20;;;11.10;99.90;;;;;;5097095;28;20229;-94
2022/01/12 03:25:55;;;;;;;4.43;1.03;;;11.10;99.90;;;;;;5097196;28;20217;-95
2022/01/12 03:28:26;;;;;;;1.37;0.77;;;11.00;99.90;;;;;;5096335;28;20214;-92
2022/01/12 03:31:05;;;;;;;5.73;1.30;;;11.10;99.90;;;;;;5086779;28;20330;-94
2022/01/12 03:33:52;;;;;;;4.53;0.97;;;11.00;99.90;;;;;;5085116;28;20210;-96
2022/01/12 03:36:41;;;;;;;4.80;1.20;;;11.00;99.90;;;;;;5080257;28;20257;-94
2022/01/12 03:39:14;;;;;;;5.50;1.33;;;10.90;99.90;;;;;;5087294;28;20207;-94
2022/01/12 03:41:49;;;;;;;4.97;1.20;;;10.80;99.90;;;;;;5084658;28;20296;-92
2022/01/12 03:44:20;;;;;;;4.90;1.30;;;10.80;99.90;;;;;;5090336;28;20214;-94
2022/01/12 03:46:54;;;;;;;10.63;2.00;;;10.80;99.90;;;;;;5102869;28;20195;-96
2022/01/12 03:49:31;;;;;;;5.00;1.37;;;10.70;99.90;;;;;;5107185;27;20190;-96
2022/01/12 03:52:07;;;;;;;7.90;1.60;;;10.70;99.90;;;;;;5113183;27;20217;-94
2022/01/12 03:54:40;;;;;;;11.43;1.60;;;10.60;99.90;;;;;;5114895;28;20213;-95
2022/01/12 03:57:15;;;;;;;12.43;1.87;;;10.60;99.90;;;;;;5118300;27;20207;-96
2022/01/12 03:59:47;;;;;;;6.63;1.60;;;10.60;99.90;;;;;;5118341;28;20217;-96
2022/01/12 04:02:18;;;;;;;7.00;1.73;;;10.50;99.90;;;;;;5109064;28;20747;-95
2022/01/12 04:05:10;;;;;;;6.60;1.50;;;10.60;99.90;;;;;;5103334;28;20210;-95
2022/01/12 04:10:44;;;;;;;4.17;1.10;;;10.50;99.90;;;;;;5044652;28;20200;-94
2022/01/12 04:13:19;;;;;;;2.10;1.40;;;10.50;99.90;;;;;;5036958;28;20193;-94
2022/01/12 04:15:55;;;;;;;4.20;1.60;;;10.60;99.90;;;;;;5078485;28;20225;-93
2022/01/12 04:18:27;;;;;;;4.47;1.37;;;10.60;99.90;;;;;;5111411;28;20228;-94
2022/01/12 04:21:01;;;;;;;4.40;1.47;;;10.60;99.90;;;;;;5115428;28;20245;-94
2022/01/12 04:23:32;;;;;;;4.70;1.70;;;10.60;99.90;;;;;;5113443;28;20230;-95
2022/01/12 04:26:09;;;;;;;6.83;1.70;;;10.60;99.90;;;;;;5112667;28;20218;-94
2022/01/12 04:28:43;;;;;;;6.20;1.37;;;10.60;99.90;;;;;;5113128;28;20243;-94
2022/01/12 04:31:17;;;;;;;8.80;2.40;;;10.60;99.90;;;;;;5114669;28;20213;-94
2022/01/12 04:33:51;;;;;;;7.70;1.97;;;10.60;99.90;;;;;;5115747;28;20216;-94
2022/01/12 04:36:35;;;;;;;4.47;1.50;;;10.60;99.90;;;;;;5921118;22;20235;-95
2022/01/12 04:39:06;;;;;;;3.77;1.30;;;10.60;99.90;;;;;;5075764;28;20212;-95
2022/01/12 04:41:38;;;;;;;6.67;1.57;;;10.60;99.90;;;;;;5072933;28;20262;-94
2022/01/12 04:44:12;;;;;;;3.10;1.40;;;10.60;99.90;;;;;;5106643;22;20228;-94
2022/01/12 04:49:47;;;;;;;5.33;2.03;;;10.60;99.90;;;;;;5142072;22;20258;-95
2022/01/12 04:52:21;;;;;;;5.13;1.57;;;10.50;99.90;;;;;;5077364;28;20198;-93
2022/01/12 04:54:54;;;;;;;5.67;1.80;;;10.60;99.90;;;;;;5077386;28;20180;-92
2022/01/12 04:57:26;;;;;;;4.13;1.40;;;10.60;99.90;;;;;;5076479;28;20653;-94
2022/01/12 05:00:06;;;;;;;5.20;1.73;;;10.60;99.90;;;;;;5076532;28;20211;-94
2022/01/12 05:08:18;;;;;;;9.70;2.67;;;10.60;99.90;;;;;;5074663;28;20273;-95
2022/01/12 05:13:38;;;;;;;8.00;1.93;;;10.60;99.90;;;;;;5074218;28;20196;-94
2022/01/12 05:16:12;;;;;;;4.27;1.73;;;10.60;99.90;;;;;;5065833;28;20234;-95
2022/01/12 05:18:46;;;;;;;6.17;2.20;;;10.60;99.90;;;;;;5071063;28;20223;-96
2022/01/12 05:21:18;;;;;;;6.67;2.20;;;10.50;99.90;;;;;;5061803;28;20254;-95
2022/01/12 05:23:50;;;;;;;5.33;2.33;;;10.60;99.90;;;;;;5064608;28;20739;-95
2022/01/12 05:26:22;;;;;;;7.87;2.43;;;10.60;99.90;;;;;;5062715;28;20196;-94
2022/01/12 05:28:53;;;;;;;6.87;2.97;;;10.60;99.90;;;;;;5061293;28;20208;-94
2022/01/12 05:31:26;;;;;;;6.50;2.20;;;10.50;99.90;;;;;;5071320;28;20209;-94
2022/01/12 05:34:00;;;;;;;8.87;3.10;;;10.60;99.90;;;;;;5072530;28;20228;-94
2022/01/12 05:36:34;;;;;;;5.37;2.60;;;10.50;99.90;;;;;;5063939;28;20204;-94
2022/01/12 05:39:05;;;;;;;7.10;2.37;;;10.50;99.90;;;;;;5060430;28;20208;-94
2022/01/12 05:41:36;;;;;;;6.43;2.10;;;10.50;99.90;;;;;;5062003;28;20240;-94
2022/01/12 05:44:08;;;;;;;5.23;2.47;;;10.60;99.90;;;;;;5078173;28;20242;-94
2022/01/12 05:46:43;;;;;;;4.60;2.13;;;10.60;99.90;;;;;;5076826;28;20205;-94
2022/01/12 05:52:02;;;;;;;4.40;1.80;;;10.70;99.90;;;;;;5064967;28;20192;-94
2022/01/12 05:54:33;;;;;;;2.60;1.57;;;10.60;99.90;;;;;;5053473;28;20196;-94
2022/01/12 05:57:04;;;;;;;8.33;2.00;;;10.60;99.90;;;;;;5041211;28;20232;-94
2022/01/12 05:59:36;;;;;;;6.70;2.13;;;10.70;99.90;;;;;;5042147;28;20209;-94
2022/01/12 06:02:10;;;;;;;3.13;1.70;;;10.70;99.90;;;;;;5038984;28;20233;-95
2022/01/12 06:04:41;;;;;;;3.60;1.57;;;10.70;99.90;;;;;;5040275;28;20331;-94
2022/01/12 06:07:12;;;;;;;6.77;2.53;;;10.70;99.90;;;;;;5044521;28;20293;-94
2022/01/12 06:09:44;;;;;;;5.43;2.30;;;10.70;99.90;;;;;;5064626;28;20208;-94
2022/01/12 06:12:15;;;;;;;3.10;1.70;;;10.70;99.90;;;;;;5059674;28;20244;-95
2022/01/12 06:14:46;;;;;;;3.50;1.70;;;10.70;99.90;;;;;;4710398;28;9999877;-96
2022/01/12 06:17:19;;;;;;;4.30;1.80;;;10.70;99.90;;;;;;5058992;28;20247;-94
2022/01/12 06:19:50;;;;;;;3.63;1.87;;;10.70;99.90;;;;;;5059371;28;20203;-94
2022/01/12 06:22:21;;;;;;;4.40;1.67;;;10.70;99.90;;;;;;5062303;28;20279;-94
2022/01/12 06:24:52;;;;;;;5.03;2.10;;;10.70;99.90;;;;;;5066247;28;20700;-94
2022/01/12 06:27:27;;;;;;;5.57;1.97;;;10.70;99.90;;;;;;5066807;28;20216;-92
2022/01/12 06:31:10;;;;;;;3.33;1.57;;;10.70;99.90;;;;;;5068256;28;20235;-95
2022/01/12 06:32:59;;;;;;;2.73;1.47;;;10.70;99.90;;;;;;5059257;28;20208;-94
2022/01/12 06:35:30;;;;;;;4.70;1.97;;;10.70;99.90;;;;;;5058688;28;20216;-95
2022/01/12 06:38:01;;;;;;;4.47;1.93;;;10.70;99.90;;;;;;5057952;28;20579;-94
2022/01/12 06:40:32;;;;;;;4.93;2.33;;;10.70;99.90;;;;;;5062586;28;20205;-95
2022/01/12 06:43:04;;;;;;;5.57;2.00;;;10.70;99.90;;;;;;5066570;28;20228;-94
2022/01/12 06:45:35;;;;;;;6.17;1.90;;;10.70;99.90;;;;;;5065341;28;20208;-94
2022/01/12 06:48:08;;;;;;;3.50;1.93;;;10.70;99.90;;;;;;5064112;28;20208;-94
2022/01/12 06:50:39;;;;;;;4.30;1.97;;;10.70;99.90;;;;;;5064645;28;20224;-95
2022/01/12 06:53:10;;;;;;;5.23;2.27;;;10.70;99.90;;;;;;5066583;28;20211;-95
2022/01/12 06:55:42;;;;;;;3.50;2.30;;;10.80;99.90;;;;;;5064088;28;20212;-95
2022/01/12 06:58:14;;;;;;;3.87;2.20;;;10.80;99.90;;;;;;5063636;28;20215;-95
2022/01/12 07:00:44;;;;;;;4.63;2.57;;;10.80;99.90;;;;;;5064037;28;20230;-95
2022/01/12 07:03:18;;;;;;;3.13;2.33;;;10.70;99.90;;;;;;5064459;28;20666;-94
2022/01/12 07:05:49;;;;;;;8.90;2.90;;;10.80;99.90;;;;;;5064707;28;20215;-94
2022/01/12 07:08:20;;;;;;;7.77;2.87;;;10.70;99.90;;;;;;5063987;28;20595;-94
2022/01/12 07:10:51;;;;;;;4.03;3.40;;;10.80;99.90;;;;;;5058932;28;20232;-95
2022/01/12 07:13:22;;;;;;;5.37;3.33;;;10.80;99.90;;;;;;5057542;28;20215;-93
2022/01/12 07:15:56;;;;;;;7.17;4.37;;;10.80;99.90;;;;;;5057862;28;20232;-93
2022/01/12 07:18:32;;;;;;;4.90;3.30;;;10.80;99.90;;;;;;5055551;28;20262;-92
2022/01/12 07:21:03;;;;;;;5.80;3.53;;;10.80;99.90;;;;;;5056833;28;20283;-92
2022/01/12 07:23:34;;;;;;;8.83;3.70;;;10.80;99.90;;;;;;5061652;28;20296;-93
2022/01/12 07:26:06;;;;;;;9.93;4.27;;;10.80;99.90;;;;;;5056662;28;20236;-93
2022/01/12 07:28:38;;;;;;;9.10;4.67;;;10.80;99.90;;;;;;5058815;28;20718;-93
2022/01/12 07:31:10;;;;;;;7.50;3.80;;;10.80;99.90;;;;;;5057215;28;20216;-94
2022/01/12 07:33:43;;;;;;;7.97;5.23;;;10.80;99.90;;;;;;5061237;28;20208;-94
2022/01/12 07:36:16;;;;;;;5.13;3.60;;;10.80;99.90;;;;;;5057214;28;20651;-94
2022/01/12 07:38:49;;;;;;;5.67;3.50;;;10.80;99.90;;;;;;5060920;28;20606;-95
2022/01/12 07:41:20;;;;;;;5.40;3.30;;;10.80;99.90;;;;;;5059138;28;20626;-94
2022/01/12 07:43:52;;;;;;;6.30;3.07;;;10.80;99.90;;;;;;5058848;28;20240;-94
2022/01/12 07:46:23;;;;;;;5.20;3.13;;;10.80;99.90;;;;;;5057142;28;20204;-94
2022/01/12 07:48:57;;;;;;;4.57;2.83;;;10.90;99.90;;;;;;5054830;28;20212;-93
2022/01/12 07:51:27;;;;;;;4.53;2.50;;;10.80;99.90;;;;;;5036632;28;20217;-93
2022/01/12 07:53:59;;;;;;;5.27;2.30;;;10.90;99.90;;;;;;5039554;28;20217;-94
2022/01/12 07:56:30;;;;;;;4.37;2.60;;;10.90;99.90;;;;;;5057350;28;20231;-93
2022/01/12 07:59:02;;;;;;;3.17;2.10;;;10.90;99.90;;;;;;5070804;28;20242;-93
2022/01/12 08:01:33;;;;;;;3.13;1.93;;;10.90;99.90;;;;;;5076601;28;20214;-92
2022/01/12 08:04:07;;;;;;;2.47;2.00;;;11.00;99.90;;;;;;5075893;28;20222;-94
2022/01/12 08:06:38;;;;;;;4.87;3.20;;;10.90;99.90;;;;;;5076065;28;20226;-94
2022/01/12 08:09:09;;;;;;;3.43;1.83;;;11.00;99.90;;;;;;5071109;28;20219;-93
2022/01/12 08:11:40;;;;;;;2.20;1.90;;;11.00;99.90;;;;;;5062522;28;20654;-93
2022/01/12 08:14:12;;;;;;;3.27;1.80;;;11.00;99.90;;;;;;5062207;28;20232;-94
2022/01/12 08:16:43;;;;;;;2.87;1.97;;;11.00;99.90;;;;;;5061183;28;20208;-94
2022/01/12 08:19:19;;;;;;;2.47;1.70;;;11.00;99.90;;;;;;5074130;28;20259;-94
2022/01/12 08:21:51;;;;;;;1.70;1.60;;;11.00;99.90;;;;;;5075877;28;20256;-94
2022/01/12 08:24:22;;;;;;;4.47;1.80;;;11.00;99.90;;;;;;5076580;28;20200;-94
2022/01/12 08:27:08;;;;;;;2.47;1.60;;;11.00;99.90;;;;;;5074456;28;20344;-94
2022/01/12 08:29:39;;;;;;;2.17;1.80;;;11.00;99.90;;;;;;5073448;28;20188;-95
2022/01/12 08:32:12;;;;;;;1.90;1.40;;;11.00;99.90;;;;;;5074494;28;20211;-94
2022/01/12 08:34:46;;;;;;;12.37;4.40;;;11.00;99.90;;;;;;5071370;28;20204;-94
2022/01/12 08:37:17;;;;;;;1.80;1.40;;;11.00;99.90;;;;;;5073567;28;20273;-94
2022/01/12 08:39:48;;;;;;;1.47;1.37;;;11.00;99.90;;;;;;5069618;28;20219;-93
2022/01/12 08:42:19;;;;;;;2.03;1.80;;;11.00;99.90;;;;;;5073139;28;20228;-96
2022/01/12 08:44:50;;;;;;;3.13;1.83;;;11.10;99.90;;;;;;5078209;28;20200;-94
2022/01/12 08:47:21;;;;;;;1.93;1.60;;;11.00;99.90;;;;;;5076657;28;20212;-92
2022/01/12 08:49:54;;;;;;;2.13;1.93;;;11.10;99.90;;;;;;5070733;28;20204;-93
2022/01/12 08:52:27;;;;;;;2.47;1.30;;;11.10;99.90;;;;;;5064136;28;20212;-94
2022/01/12 08:54:59;;;;;;;2.67;1.90;;;11.10;99.90;;;;;;5063114;28;20213;-94
2022/01/12 08:57:31;;;;;;;2.30;1.53;;;11.10;99.90;;;;;;5061702;28;20243;-94
2022/01/12 09:00:03;;;;;;;3.07;1.50;;;11.10;99.90;;;;;;5094916;23;20262;-94
2022/01/12 09:02:34;;;;;;;1.60;1.20;;;11.10;99.90;;;;;;5062068;28;20239;-95
2022/01/12 09:05:08;;;;;;;1.93;1.20;;;11.20;99.90;;;;;;5059830;28;20212;-93
2022/01/12 09:07:40;;;;;;;1.57;1.20;;;11.20;99.90;;;;;;5063235;28;20240;-93
2022/01/12 09:10:12;;;;;;;1.60;1.43;;;11.20;99.90;;;;;;5061569;28;20208;-93
2022/01/12 09:12:43;;;;;;;1.53;1.37;;;11.20;99.90;;;;;;5060175;28;20224;-94
2022/01/12 09:15:15;;;;;;;2.87;2.67;;;11.20;99.90;;;;;;5059341;28;20254;-93
2022/01/12 09:17:47;;;;;;;1.50;1.30;;;11.20;99.90;;;;;;5058212;28;20224;-94
2022/01/12 09:20:21;;;;;;;2.03;1.23;;;11.20;99.90;;;;;;5071617;28;20583;-94
2022/01/12 09:22:52;;;;;;;2.90;1.37;;;11.10;99.90;;;;;;5067906;28;20255;-92
2022/01/12 09:25:23;;;;;;;2.87;1.40;;;11.20;99.90;;;;;;5059851;28;20235;-94
2022/01/12 09:27:57;;;;;;;3.20;1.50;;;11.20;99.90;;;;;;5059790;28;20657;-93
2022/01/12 09:30:28;;;;;;;2.17;1.40;;;11.20;99.90;;;;;;5060049;28;20204;-94
2022/01/12 09:33:00;;;;;;;2.47;1.53;;;11.20;99.90;;;;;;5059814;28;20208;-94
2022/01/12 09:35:33;;;;;;;1.30;1.20;;;11.20;99.90;;;;;;5059928;28;20216;-95
2022/01/12 09:38:03;;;;;;;3.30;2.07;;;11.20;99.90;;;;;;5059901;28;20208;-93
2022/01/12 09:40:34;;;;;;;2.13;1.70;;;11.20;99.90;;;;;;5059903;28;20208;-94
2022/01/12 09:43:07;;;;;;;2.50;1.80;;;11.20;99.90;;;;;;5061110;28;20385;-95
2022/01/12 09:45:39;;;;;;;2.13;1.37;;;11.20;99.90;;;;;;5061190;28;20214;-95
2022/01/12 09:48:10;;;;;;;1.83;1.63;;;11.20;99.90;;;;;;5061565;28;20303;-94
2022/01/12 09:50:43;;;;;;;2.93;1.63;;;11.20;99.90;;;;;;5066179;28;20219;-95
2022/01/12 09:53:14;;;;;;;2.17;1.60;;;11.20;99.90;;;;;;5062387;28;20205;-94
2022/01/12 09:55:46;;;;;;;2.13;1.60;;;11.20;99.90;;;;;;5052610;28;20212;-94
2022/01/12 09:58:17;;;;;;;1.63;1.50;;;11.20;99.90;;;;;;5043056;28;20232;-94
2022/01/12 10:00:58;;;;;;;1.97;1.80;;;11.20;99.90;;;;;;5040494;28;20749;-95
2022/01/12 10:03:34;;;;;;;3.00;1.80;;;11.20;99.90;;;;;;5056847;28;20693;-94
2022/01/12 10:06:16;;;;;;;2.70;1.50;;;11.20;99.90;;;;;;5074600;28;20212;-93
2022/01/12 10:08:48;;;;;;;2.27;1.50;;;11.20;99.90;;;;;;5094251;22;20244;-93
2022/01/12 10:11:20;;;;;;;2.03;1.77;;;11.20;99.90;;;;;;5056803;28;20231;-93
2022/01/12 10:13:58;;;;;;;2.77;1.40;;;11.20;99.90;;;;;;5044822;28;20267;-94
2022/01/12 10:16:28;;;;;;;1.63;1.20;;;11.10;99.90;;;;;;5053757;28;20196;-95
2022/01/12 10:19:02;;;;;;;2.03;1.27;;;11.20;99.90;;;;;;5055966;28;20197;-93
2022/01/12 10:21:38;;;;;;;2.60;1.10;;;11.10;99.90;;;;;;5053211;28;20204;-93
2022/01/12 10:24:11;;;;;;;1.70;1.23;;;11.10;99.90;;;;;;5042424;28;20248;-95
2022/01/12 10:26:45;;;;;;;1.00;1.00;;;11.20;99.90;;;;;;5037698;28;20319;-95
2022/01/12 10:29:19;;;;;;;1.73;1.10;;;11.20;99.90;;;;;;5037905;28;20236;-94
2022/01/12 10:31:53;;;;;;;1.13;0.83;;;11.30;99.90;;;;;;5038440;28;20205;-94
2022/01/12 10:34:25;;;;;;;3.17;1.20;;;11.30;99.90;;;;;;5038407;28;20216;-95
2022/01/12 10:36:59;;;;;;;1.30;1.00;;;11.30;99.90;;;;;;5036698;28;20236;-95
2022/01/12 10:39:30;;;;;;;4.00;1.20;;;11.20;99.90;;;;;;5038016;28;20231;-94
2022/01/12 10:42:03;;;;;;;1.80;0.90;;;11.20;99.90;;;;;;5038092;28;20212;-95
2022/01/12 10:44:36;;;;;;;1.30;1.17;;;11.30;99.90;;;;;;5039308;28;20651;-94
2022/01/12 10:47:16;;;;;;;3.83;1.00;;;11.30;99.90;;;;;;5036947;28;20255;-94
2022/01/12 10:50:00;;;;;;;2.93;1.03;;;11.30;99.90;;;;;;5039725;28;20223;-94
2022/01/12 10:52:36;;;;;;;1.37;1.20;;;11.30;99.90;;;;;;5039659;28;20194;-93
2022/01/12 10:55:09;;;;;;;1.40;0.73;;;11.30;99.90;;;;;;5039078;28;20266;-94
2022/01/12 10:57:44;;;;;;;1.53;1.00;;;11.40;99.90;;;;;;5037864;28;20212;-94
2022/01/12 11:00:21;;;;;;;1.27;1.00;;;11.40;99.90;;;;;;5041726;28;20392;-95
2022/01/12 11:02:53;;;;;;;2.30;0.73;;;11.40;99.90;;;;;;5039704;28;20224;-94
2022/01/12 11:05:26;;;;;;;1.07;0.83;;;11.40;99.90;;;;;;5038334;28;20298;-95
2022/01/12 11:08:01;;;;;;;1.20;1.10;;;11.40;99.90;;;;;;5037105;28;20216;-94
2022/01/12 11:10:32;;;;;;;1.70;1.00;;;11.40;99.90;;;;;;5039259;28;20592;-94
2022/01/12 11:13:04;;;;;;;1.33;1.00;;;11.40;99.90;;;;;;5039604;28;20209;-94
2022/01/12 11:15:35;;;;;;;0.70;0.70;;;11.40;99.90;;;;;;5036483;28;20240;-95
2022/01/12 11:18:07;;;;;;;2.40;1.00;;;11.40;99.90;;;;;;5036361;28;20599;-95
2022/01/12 11:20:42;;;;;;;1.00;0.70;;;11.40;99.90;;;;;;5037928;28;20209;-94
2022/01/12 11:23:18;;;;;;;0.83;0.67;;;11.30;99.90;;;;;;5036178;28;20239;-95
2022/01/12 11:25:52;;;;;;;0.97;0.70;;;11.30;99.90;;;;;;5034255;28;20660;-95
2022/01/12 11:28:25;;;;;;;0.70;0.70;;;11.40;99.90;;;;;;5034237;28;20211;-95
2022/01/12 11:31:04;;;;;;;0.93;0.60;;;11.40;99.90;;;;;;5035498;28;20292;-95
2022/01/12 11:33:42;;;;;;;1.00;1.00;;;11.40;99.90;;;;;;5035518;28;20263;-95
2022/01/12 11:36:20;;;;;;;1.70;0.63;;;11.40;99.90;;;;;;5035824;28;20201;-95
2022/01/12 11:39:02;;;;;;;1.40;0.80;;;11.40;99.90;;;;;;5036361;28;20336;-93
2022/01/12 11:41:34;;;;;;;0.60;0.60;;;11.40;99.90;;;;;;5042672;28;20205;-94
2022/01/12 11:44:07;;;;;;;1.27;0.60;;;11.40;99.90;;;;;;5039253;28;20229;-94
2022/01/12 11:46:48;;;;;;;0.50;0.50;;;11.50;99.90;;;;;;5035001;28;20212;-94
2022/01/12 11:49:29;;;;;;;3.33;0.87;;;11.40;99.90;;;;;;5040195;28;20193;-93
2022/01/12 11:52:04;;;;;;;0.50;0.50;;;11.40;99.90;;;;;;5035532;28;20231;-94
2022/01/12 11:54:47;;;;;;;0.97;0.50;;;11.40;99.90;;;;;;5035421;28;20690;-94
2022/01/12 11:57:20;;;;;;;1.30;0.50;;;11.40;99.90;;;;;;5037314;28;20255;-94
2022/01/12 11:59:53;;;;;;;0.43;0.43;;;11.40;99.90;;;;;;5037049;28;20800;-94
2022/01/12 12:02:35;;;;;;;2.00;0.50;;;11.40;99.90;;;;;;5036028;28;20316;-94
2022/01/12 12:05:11;;;;;;;0.53;0.50;;;11.40;99.90;;;;;;5038340;28;20249;-93
2022/01/12 12:07:47;;;;;;;1.30;0.70;;;11.40;99.90;;;;;;5038698;28;20227;-95
2022/01/12 12:10:23;;;;;;;0.40;0.30;;;11.50;99.90;;;;;;5036825;28;20208;-95
2022/01/12 12:12:56;;;;;;;0.47;0.40;;;11.40;99.90;;;;;;5039958;28;20205;-95
2022/01/12 12:15:27;;;;;;;0.60;0.50;;;11.50;99.90;;;;;;5037899;28;20217;-95
2022/01/12 12:18:04;;;;;;;0.83;0.50;;;11.40;99.90;;;;;;5041002;28;20212;-93
2022/01/12 12:20:36;;;;;;;0.53;0.47;;;11.50;99.90;;;;;;5042136;28;20231;-93
2022/01/12 12:23:08;;;;;;;0.50;0.50;;;11.50;99.90;;;;;;5039773;28;20287;-92
2022/01/12 12:25:41;;;;;;;0.93;0.50;;;11.50;99.90;;;;;;5044301;28;20369;-93
2022/01/12 12:28:13;;;;;;;2.07;0.50;;;11.50;99.90;;;;;;5040456;28;20232;-95
2022/01/12 12:30:44;;;;;;;1.60;0.47;;;11.50;99.90;;;;;;5040617;28;20254;-95
2022/01/12 12:33:16;;;;;;;0.57;0.27;;;11.50;99.90;;;;;;5040148;28;20216;-94
2022/01/12 12:35:48;;;;;;;0.40;0.40;;;11.50;99.90;;;;;;5055088;28;20230;-95
2022/01/12 12:38:19;;;;;;;0.40;0.40;;;11.50;99.90;;;;;;5058486;28;20209;-95
2022/01/12 12:40:53;;;;;;;0.30;0.30;;;11.50;99.90;;;;;;5058002;28;20192;-95
2022/01/12 12:43:33;;;;;;;1.57;1.07;;;11.50;99.90;;;;;;5051494;28;20257;-93
2022/01/12 12:46:11;;;;;;;0.40;0.30;;;11.50;99.90;;;;;;5052721;28;20232;-95
2022/01/12 12:48:43;;;;;;;0.40;0.40;;;11.50;99.90;;;;;;5040035;28;20368;-95
2022/01/12 12:51:17;;;;;;;0.80;0.40;;;11.50;99.90;;;;;;5039915;28;20225;-96
2022/01/12 12:53:52;;;;;;;0.63;0.40;;;11.50;99.90;;;;;;5043201;28;20209;-96
2022/01/12 12:56:29;;;;;;;0.83;0.77;;;11.50;99.90;;;;;;5038610;28;20306;-93
2022/01/12 12:59:00;;;;;;;0.23;0.20;;;11.50;99.90;;;;;;5040388;28;20204;-95
2022/01/12 13:01:31;;;;;;;0.70;0.33;;;11.50;99.90;;;;;;5039107;28;20215;-96
2022/01/12 13:04:04;;;;;;;0.27;0.20;;;11.50;99.90;;;;;;5039568;28;20209;-96
2022/01/12 13:06:36;;;;;;;0.30;0.30;;;11.50;99.90;;;;;;5038653;28;20829;-95
2022/01/12 13:09:09;;;;;;;0.67;0.30;;;11.50;99.90;;;;;;5042220;28;20262;-94
2022/01/12 13:11:44;;;;;;;0.93;0.40;;;11.50;99.90;;;;;;5040915;28;20623;-95
2022/01/12 13:14:17;;;;;;;0.23;0.23;;;11.50;99.90;;;;;;5042656;28;20231;-95
2022/01/12 13:16:49;;;;;;;0.33;0.33;;;11.50;99.90;;;;;;5038776;28;20678;-94
2022/01/12 13:21:06;;;;;;;0.73;0.20;;;11.50;99.90;;;;;;5038771;28;20204;-93
2022/01/12 13:22:25;;;;;;;0.50;0.20;;;11.60;99.90;;;;;;5039148;28;20655;-94
2022/01/12 13:24:57;;;;;;;0.20;0.20;;;11.60;99.90;;;;;;5038569;28;20256;-94
2022/01/12 13:27:31;;;;;;;0.33;0.30;;;11.60;99.90;;;;;;5037046;28;20255;-94
2022/01/12 13:30:03;;;;;;;0.40;0.30;;;11.60;99.90;;;;;;5037902;28;20276;-94
2022/01/12 13:32:33;;;;;;;0.20;0.20;;;11.60;99.90;;;;;;5039935;28;20201;-94
2022/01/12 13:35:09;;;;;;;0.30;0.30;;;11.60;99.90;;;;;;5040493;28;20233;-95
2022/01/12 13:37:42;;;;;;;0.30;0.13;;;11.50;99.90;;;;;;5039200;28;20250;-95
2022/01/12 13:40:35;;;;;;;1.37;0.30;;;11.50;99.90;;;;;;5037971;28;20278;-95
2022/01/12 13:43:11;;;;;;;0.30;0.27;;;11.60;99.90;;;;;;5037386;28;20204;-95
2022/01/12 13:45:45;;;;;;;0.70;0.23;;;11.60;99.90;;;;;;5037817;28;20232;-94
2022/01/12 13:48:20;;;;;;;0.60;0.40;;;11.60;99.90;;;;;;5036378;28;20236;-95
2022/01/12 13:50:54;;;;;;;0.60;0.30;;;11.60;99.90;;;;;;5038184;28;20201;-96
2022/01/12 13:53:35;;;;;;;0.73;0.30;;;11.60;99.90;;;;;;5037797;28;20273;-95
2022/01/12 13:56:07;;;;;;;0.20;0.20;;;11.60;99.90;;;;;;5037549;28;20212;-96
2022/01/12 13:58:39;;;;;;;0.30;0.30;;;11.60;99.90;;;;;;5036719;28;20213;-96
2022/01/12 14:01:13;;;;;;;0.33;0.33;;;11.60;99.90;;;;;;5036966;28;20628;-95
2022/01/12 14:03:50;;;;;;;0.30;0.30;;;11.60;99.90;;;;;;5038965;28;20204;-96
2022/01/12 14:06:26;;;;;;;0.30;0.20;;;11.50;99.90;;;;;;5036526;28;20296;-96
2022/01/12 14:09:00;;;;;;;0.20;0.20;;;11.60;99.90;;;;;;5036957;28;20235;-95
2022/01/12 14:11:35;;;;;;;0.30;0.10;;;11.60;99.90;;;;;;5038765;28;20250;-96
2022/01/12 14:14:10;;;;;;;0.23;0.23;;;11.60;99.90;;;;;;5036817;28;20243;-96
2022/01/12 14:16:44;;;;;;;1.30;0.50;;;11.60;99.90;;;;;;5035276;28;20731;-93
2022/01/12 14:19:17;;;;;;;0.77;0.30;;;11.60;99.90;;;;;;5037262;28;20236;-92
2022/01/12 14:22:01;;;;;;;0.37;0.33;;;11.60;99.90;;;;;;5036884;28;20213;-94
2022/01/12 14:24:32;;;;;;;0.40;0.40;;;11.60;99.90;;;;;;5036426;28;20232;-95
2022/01/12 14:27:03;;;;;;;0.73;0.37;;;11.70;99.90;;;;;;5035913;28;20232;-95
2022/01/12 14:29:36;;;;;;;1.60;0.40;;;11.60;99.90;;;;;;5036667;28;20209;-95
2022/01/12 14:32:08;;;;;;;0.27;0.27;;;11.70;99.90;;;;;;5038644;28;20208;-95
2022/01/12 14:34:39;;;;;;;0.50;0.50;;;11.60;99.90;;;;;;5036903;28;20271;-94
2022/01/12 14:37:11;;;;;;;1.50;0.67;;;11.70;99.90;;;;;;5036650;28;20276;-93
2022/01/12 14:39:42;;;;;;;0.40;0.40;;;11.70;99.90;;;;;;5039818;28;20208;-95
2022/01/12 14:42:13;;;;;;;0.97;0.50;;;11.60;99.90;;;;;;5039800;28;20228;-94
2022/01/12 14:44:48;;;;;;;2.20;0.50;;;11.60;99.90;;;;;;5037885;28;20208;-94